createdAt,value
2022-09-23T00:00:03.087Z,943.63
2022-09-23T00:05:03.112Z,943.72
2022-09-23T00:10:03.199Z,943.78
2022-09-23T00:15:03.120Z,943.86
2022-09-23T00:20:03.154Z,943.90
2022-09-23T00:25:03.073Z,943.92
2022-09-23T00:30:03.130Z,944.00
2022-09-23T00:35:03.176Z,944.02
2022-09-23T00:40:03.316Z,944.13
2022-09-23T00:45:03.052Z,944.17
2022-09-23T00:50:03.193Z,944.17
2022-09-23T00:55:03.223Z,944.23
2022-09-23T01:00:03.160Z,944.25
2022-09-23T01:05:03.124Z,944.23
2022-09-23T01:10:03.381Z,944.33
2022-09-23T01:15:03.080Z,944.37
2022-09-23T01:20:03.148Z,944.35
2022-09-23T01:25:03.054Z,944.41
2022-09-23T01:30:03.171Z,944.39
2022-09-23T01:35:03.109Z,944.41
2022-09-23T01:40:03.364Z,944.45
2022-09-23T01:45:03.028Z,944.47
2022-09-23T01:50:03.171Z,944.43
2022-09-23T01:55:03.007Z,944.49
2022-09-23T02:00:03.249Z,944.59
2022-09-23T02:05:03.021Z,944.61
2022-09-23T02:10:03.118Z,944.65
2022-09-23T02:15:03.102Z,944.63
2022-09-23T02:20:03.196Z,944.63
2022-09-23T02:25:03.018Z,944.65
2022-09-23T02:30:03.235Z,944.65
2022-09-23T02:35:03.144Z,944.70
2022-09-23T02:40:03.204Z,944.67
2022-09-23T02:45:03.025Z,944.70
2022-09-23T02:50:03.124Z,944.80
2022-09-23T02:55:04.141Z,944.80
2022-09-23T03:00:03.183Z,944.82
2022-09-23T03:05:03.023Z,944.78
2022-09-23T03:10:03.168Z,944.74
2022-09-23T03:15:03.085Z,944.70
2022-09-23T03:20:03.117Z,944.65
2022-09-23T03:25:03.115Z,944.59
2022-09-23T03:30:03.116Z,944.57
2022-09-23T03:35:03.137Z,944.63
2022-09-23T03:40:03.107Z,944.70
2022-09-23T03:45:03.060Z,944.76
2022-09-23T03:50:03.143Z,944.70
2022-09-23T03:55:03.036Z,944.68
2022-09-23T04:00:03.123Z,944.61
2022-09-23T04:05:03.079Z,944.55
2022-09-23T04:10:03.653Z,944.57
2022-09-23T04:15:03.088Z,944.57
2022-09-23T04:20:03.211Z,944.57
2022-09-23T04:25:02.992Z,944.55
2022-09-23T04:30:03.164Z,944.47
2022-09-23T04:35:03.145Z,944.41
2022-09-23T04:40:03.237Z,944.27
2022-09-23T04:45:03.169Z,944.27
2022-09-23T04:50:03.169Z,944.25
2022-09-23T04:55:03.067Z,944.29
2022-09-23T05:00:03.114Z,944.21
2022-09-23T05:05:02.944Z,944.19
2022-09-23T05:10:03.162Z,944.21
2022-09-23T05:15:03.023Z,944.29
2022-09-23T05:20:03.152Z,944.33
2022-09-23T05:25:03.065Z,944.25
2022-09-23T05:30:03.123Z,944.23
2022-09-23T05:35:03.071Z,944.17
2022-09-23T05:40:03.377Z,944.12
2022-09-23T05:45:03.084Z,944.00
2022-09-23T05:50:03.121Z,944.10
2022-09-23T05:55:03.159Z,944.10
2022-09-23T06:00:03.045Z,944.02
2022-09-23T06:05:03.133Z,944.00
2022-09-23T06:10:03.122Z,943.98
2022-09-23T06:15:03.219Z,943.94
2022-09-23T06:20:03.144Z,943.92
2022-09-23T06:25:03.113Z,944.00
2022-09-23T06:30:03.077Z,944.06
2022-09-23T06:35:03.107Z,944.04
2022-09-23T06:40:03.357Z,943.96
2022-09-23T06:45:03.173Z,943.94
2022-09-23T06:50:03.201Z,943.98
2022-09-23T06:55:03.076Z,944.13
2022-09-23T07:00:03.176Z,944.23
2022-09-23T07:05:03.079Z,944.27
2022-09-23T07:10:03.167Z,944.39
2022-09-23T07:15:03.020Z,944.55
2022-09-23T07:20:03.120Z,944.63
2022-09-23T07:25:03.117Z,944.68
2022-09-23T07:30:03.212Z,944.84
2022-09-23T07:35:03.049Z,944.88
2022-09-23T07:40:03.297Z,944.98
2022-09-23T07:45:03.064Z,945.00
2022-09-23T07:50:03.136Z,945.06
2022-09-23T07:55:02.995Z,945.14
2022-09-23T08:00:03.151Z,945.18
2022-09-23T08:05:03.026Z,945.25
2022-09-23T08:10:03.168Z,945.31
2022-09-23T08:15:03.109Z,945.41
2022-09-23T08:20:03.217Z,945.67
2022-09-23T08:25:03.035Z,945.80
2022-09-23T08:30:03.162Z,945.88
2022-09-23T08:35:03.056Z,945.94
2022-09-23T08:40:03.140Z,946.00
2022-09-23T08:45:02.989Z,946.16
2022-09-23T08:50:03.101Z,946.23
2022-09-23T08:55:03.057Z,946.31
2022-09-23T09:00:03.121Z,946.39
2022-09-23T09:05:03.094Z,946.41
2022-09-23T09:10:03.132Z,946.47
2022-09-23T09:15:08.065Z,946.53
2022-09-23T09:20:08.167Z,946.51
2022-09-23T09:25:03.165Z,946.51
2022-09-23T09:30:03.158Z,946.67
2022-09-23T09:35:08.059Z,946.76
2022-09-23T09:40:03.138Z,946.86
2022-09-23T09:45:03.079Z,946.96
2022-09-23T09:50:03.423Z,947.06
2022-09-23T09:55:02.961Z,946.94
2022-09-23T10:00:03.157Z,946.98
2022-09-23T10:05:08.030Z,947.04
2022-09-23T10:10:15.864Z,947.16
2022-09-23T10:15:02.963Z,947.16
2022-09-23T10:20:03.086Z,947.20
2022-09-23T10:25:03.020Z,947.29
2022-09-23T10:30:03.013Z,947.29
2022-09-23T10:35:02.996Z,947.35
2022-09-23T10:40:03.293Z,947.43
2022-09-23T10:45:02.997Z,947.43
2022-09-23T10:50:03.143Z,947.33
2022-09-23T10:55:03.024Z,947.33
2022-09-23T11:00:03.006Z,947.39
2022-09-23T11:05:03.036Z,947.43
2022-09-23T11:10:03.252Z,947.49
2022-09-23T11:15:03.039Z,947.53
2022-09-23T11:20:03.274Z,947.53
2022-09-23T11:25:03.045Z,947.47
2022-09-23T11:30:03.290Z,947.47
2022-09-23T11:35:03.026Z,947.57
2022-09-23T11:40:03.081Z,947.69
2022-09-23T11:45:03.024Z,947.77
2022-09-23T11:50:03.130Z,947.79
2022-09-23T11:55:06.949Z,947.79
2022-09-23T12:00:03.209Z,947.84
2022-09-23T12:05:03.318Z,947.94
2022-09-23T12:10:03.175Z,948.12
2022-09-23T12:15:03.023Z,948.28
2022-09-23T12:20:03.074Z,948.43
2022-09-23T12:25:03.074Z,948.43
2022-09-23T12:30:03.101Z,948.43
2022-09-23T12:35:02.991Z,948.55
2022-09-23T12:40:03.078Z,948.65
2022-09-23T12:45:03.025Z,948.84
2022-09-23T12:50:03.103Z,948.84
2022-09-23T12:55:03.090Z,948.79
2022-09-23T13:00:03.005Z,948.61
2022-09-23T13:05:08.100Z,948.47
2022-09-23T13:10:03.092Z,948.51
2022-09-23T13:15:03.065Z,948.55
2022-09-23T13:20:03.137Z,948.43
2022-09-23T13:25:03.157Z,948.35
2022-09-23T13:30:03.169Z,948.35
2022-09-23T13:35:03.139Z,948.33
2022-09-23T13:40:03.170Z,948.30
2022-09-23T13:45:03.022Z,948.18
2022-09-23T13:50:03.109Z,948.22
2022-09-23T13:55:03.119Z,948.20
2022-09-23T14:00:03.149Z,948.06
2022-09-23T14:05:03.107Z,948.06
2022-09-23T14:10:03.237Z,948.02
2022-09-23T14:15:03.048Z,947.98
2022-09-23T14:20:03.247Z,947.96
2022-09-23T14:25:03.045Z,947.90
2022-09-23T14:30:03.231Z,947.84
2022-09-23T14:35:03.094Z,947.90
2022-09-23T14:40:03.131Z,947.79
2022-09-23T14:45:03.165Z,947.67
2022-09-23T14:50:03.055Z,947.61
2022-09-23T14:55:03.023Z,947.63
2022-09-23T15:00:03.198Z,947.51
2022-09-23T15:05:02.985Z,947.37
2022-09-23T15:10:03.213Z,947.31
2022-09-23T15:15:03.092Z,947.16
2022-09-23T15:20:03.179Z,947.12
2022-09-23T15:25:03.100Z,947.00
2022-09-23T15:30:03.055Z,946.98
2022-09-23T15:35:08.100Z,946.82
2022-09-23T15:40:03.118Z,946.74
2022-09-23T15:45:03.072Z,946.67
2022-09-23T15:50:03.207Z,946.59
2022-09-23T15:55:03.073Z,946.63
2022-09-23T16:00:03.260Z,946.57
2022-09-23T16:05:03.221Z,946.53
2022-09-23T16:10:03.259Z,946.53
2022-09-23T16:15:03.024Z,946.41
2022-09-23T16:20:03.167Z,946.39
2022-09-23T16:25:03.083Z,946.27
2022-09-23T16:30:03.162Z,946.06
2022-09-23T16:35:03.083Z,945.98
2022-09-23T16:40:03.113Z,945.92
2022-09-23T16:45:03.033Z,945.72
2022-09-23T16:50:03.162Z,945.67
2022-09-23T16:55:03.024Z,945.57
2022-09-23T17:00:03.076Z,945.35
2022-09-23T17:05:02.994Z,945.25
2022-09-23T17:10:03.171Z,945.23
2022-09-23T17:15:03.084Z,945.02
2022-09-23T17:20:03.208Z,944.94
2022-09-23T17:25:03.079Z,944.94
2022-09-23T17:30:03.350Z,944.86
2022-09-23T17:35:03.052Z,944.84
2022-09-23T17:40:03.263Z,944.68
2022-09-23T17:45:03.044Z,944.53
2022-09-23T17:50:03.150Z,944.47
2022-09-23T17:55:03.067Z,944.43
2022-09-23T18:00:03.160Z,944.39
2022-09-23T18:05:03.149Z,944.41
2022-09-23T18:10:03.226Z,944.39
2022-09-23T18:15:03.001Z,944.35
2022-09-23T18:20:03.130Z,944.35
2022-09-23T18:25:13.199Z,944.31
2022-09-23T18:30:03.198Z,944.17
2022-09-23T18:35:03.158Z,944.25
2022-09-23T18:40:03.254Z,944.29
2022-09-23T18:45:03.134Z,944.33
2022-09-23T18:50:03.227Z,944.37
2022-09-23T18:55:03.133Z,944.35
2022-09-23T19:00:03.167Z,944.33
2022-09-23T19:05:03.065Z,944.31
2022-09-23T19:10:03.266Z,944.31
2022-09-23T19:15:03.128Z,944.29
2022-09-23T19:20:03.149Z,944.27
2022-09-23T19:25:03.071Z,944.45
2022-09-23T19:30:03.133Z,944.57
2022-09-23T19:35:03.136Z,944.51
2022-09-23T19:40:03.432Z,944.45
2022-09-23T19:45:03.073Z,944.39
2022-09-23T19:50:03.097Z,944.37
2022-09-23T19:55:03.118Z,944.43
2022-09-23T20:00:03.145Z,944.31
2022-09-23T20:05:03.085Z,944.33
2022-09-23T20:10:03.147Z,944.31
2022-09-23T20:15:03.044Z,944.25
2022-09-23T20:20:03.366Z,944.23
2022-09-23T20:25:03.049Z,944.21
2022-09-23T20:30:03.130Z,944.25
2022-09-23T20:35:03.129Z,944.33
2022-09-23T20:40:03.198Z,944.37
2022-09-23T20:45:03.050Z,944.37
2022-09-23T20:50:03.241Z,944.39
2022-09-23T20:55:03.072Z,944.45
2022-09-23T21:00:03.089Z,944.49
2022-09-23T21:05:03.320Z,944.55
2022-09-23T21:10:03.232Z,944.53
2022-09-23T21:15:03.123Z,944.55
2022-09-23T21:20:03.270Z,944.68
2022-09-23T21:25:26.748Z,944.78
2022-09-23T21:30:03.165Z,944.90
2022-09-23T21:35:03.121Z,944.94
2022-09-23T21:40:03.250Z,944.90
2022-09-23T21:45:03.060Z,944.96
2022-09-23T21:50:03.248Z,944.98
2022-09-23T21:55:03.269Z,945.02
2022-09-23T22:00:03.065Z,945.10
2022-09-23T22:05:03.056Z,945.06
2022-09-23T22:10:03.387Z,945.04
2022-09-23T22:15:03.170Z,945.02
2022-09-23T22:20:03.222Z,945.04
2022-09-23T22:25:03.023Z,945.00
2022-09-23T22:30:03.096Z,945.10
2022-09-23T22:35:03.096Z,945.10
2022-09-23T22:40:03.231Z,945.06
2022-09-23T22:45:03.099Z,945.10
2022-09-23T22:50:03.204Z,945.16
2022-09-23T22:55:03.380Z,945.22
2022-09-23T23:00:03.239Z,945.31
2022-09-23T23:05:03.093Z,945.47
2022-09-23T23:10:03.417Z,945.49
2022-09-23T23:15:03.019Z,945.43
2022-09-23T23:20:03.424Z,945.51
2022-09-23T23:25:03.173Z,945.57
2022-09-23T23:30:03.311Z,945.61
2022-09-23T23:35:03.271Z,945.67
2022-09-23T23:40:03.227Z,945.80
2022-09-23T23:45:03.035Z,945.90
2022-09-23T23:50:04.334Z,946.00
2022-09-23T23:55:03.080Z,946.04
